Time;durP1;ratioP1;P1;durP2;ratioP2;P2;SDS_P1;SDS_P2;PMS_P1;PMS_P2;Temp;Humidity;BMP_temperature;BMP_pressure;BME280_temperature;BME280_humidity;BME280_pressure;Samples;Min_cycle;Max_cycle;Signal;HPM_P1;HPM_P2
2023/09/12 00:00:31;;;;;;;21.77;13.05;;;;;;;;;;4999673;28;20264;-77
2023/09/12 00:02:57;;;;;;;23.17;13.10;;;;;;;;;;5015182;28;20026;-77
2023/09/12 00:05:22;;;;;;;26.10;13.67;;;;;;;;;;5002260;28;20065;-77
2023/09/12 00:07:47;;;;;;;23.27;12.40;;;;;;;;;;4999345;28;20287;-77
2023/09/12 00:10:12;;;;;;;26.83;12.43;;;;;;;;;;5000235;28;20030;-77
2023/09/12 00:12:38;;;;;;;22.70;13.53;;;;;;;16.92;nan;100407.22;4999338;28;20026;-77
2023/09/12 00:15:04;;;;;;;21.50;12.70;;;;;;;;;;4996278;28;20314;-77
2023/09/12 00:17:29;;;;;;;22.08;13.20;;;;;;;;;;4999181;28;20460;-77
2023/09/12 00:19:54;;;;;;;26.90;14.30;;;;;;;;;;5000134;28;20030;-76
2023/09/12 00:22:20;;;;;;;27.20;13.80;;;;;;;;;;4999546;28;20808;-77
2023/09/12 00:24:45;;;;;;;28.87;15.70;;;;;;;;;;4998753;28;20030;-77
2023/09/12 00:27:10;;;;;;;34.27;16.23;;;;;;;;;;5000433;28;20316;-77
2023/09/12 00:29:35;;;;;;;29.43;16.17;;;;;;;;;;4999118;28;20026;-77
2023/09/12 00:32:01;;;;;;;30.57;15.40;;;;;;;;;;4998824;28;20442;-77
2023/09/12 00:34:26;;;;;;;33.87;13.27;;;;;;;;;;5030790;28;20280;-76
2023/09/12 00:36:51;;;;;;;24.10;12.97;;;;;;;;;;4998526;28;20375;-76
2023/09/12 00:39:16;;;;;;;21.60;11.33;;;;;;;;;;4998579;28;20337;-77
2023/09/12 00:41:42;;;;;;;22.20;10.70;;;;;;;;;;4998387;28;20515;-77
2023/09/12 00:44:07;;;;;;;20.20;9.63;;;;;;;;;;5034851;28;20026;-77
2023/09/12 00:46:32;;;;;;;18.52;9.95;;;;;;;;;;5005810;28;20275;-77
2023/09/12 00:48:59;;;;;;;17.50;10.13;;;;;;;;;;4997891;28;20088;-77
2023/09/12 00:51:25;;;;;;;14.52;9.25;;;;;;;;;;4995600;28;20030;-77
2023/09/12 00:53:51;;;;;;;14.98;9.80;;;;;;;16.42;nan;100365.44;5006127;28;20044;-76
2023/09/12 00:56:16;;;;;;;17.55;9.35;;;;;;;;;;4999322;28;20038;-75
2023/09/12 00:58:42;;;;;;;14.20;9.57;;;;;;;;;;4999248;28;20034;-77
2023/09/12 01:01:07;;;;;;;16.70;9.75;;;;;;;16.35;nan;100377.13;5002728;28;20048;-76
2023/09/12 01:03:34;;;;;;;15.48;8.98;;;;;;;;;;4995796;28;20034;-76
2023/09/12 01:05:59;;;;;;;17.52;8.77;;;;;;;;;;4999760;28;20156;-76
2023/09/12 01:08:25;;;;;;;14.50;9.82;;;;;;;;;;5004185;28;20108;-77
2023/09/12 01:10:52;;;;;;;15.77;9.38;;;;;;;;;;5000244;28;20125;-76
2023/09/12 01:13:18;;;;;;;17.15;9.57;;;;;;;;;;5000574;28;20026;-75
2023/09/12 01:15:43;;;;;;;15.50;8.95;;;;;;;;;;5004684;28;20036;-76
2023/09/12 01:18:09;;;;;;;16.80;9.05;;;;;;;;;;4998799;28;20542;-74
2023/09/12 01:20:35;;;;;;;14.80;9.45;;;;;;;;;;4998346;28;20048;-77
2023/09/12 01:23:00;;;;;;;12.43;8.45;;;;;;;;;;4996180;28;20116;-76
2023/09/12 01:25:25;;;;;;;16.20;9.17;;;;;;;;;;4997212;28;20064;-77
2023/09/12 01:27:51;;;;;;;17.53;9.03;;;;;;;;;;5000290;28;20288;-76
2023/09/12 01:30:17;;;;;;;19.25;8.27;;;;;;;;;;4998233;28;20026;-76
2023/09/12 01:32:43;;;;;;;14.13;8.20;;;;;;;;;;4994045;28;20411;-76
2023/09/12 01:35:09;;;;;;;15.73;8.48;;;;;;;;;;4993044;28;20113;-76
2023/09/12 01:37:34;;;;;;;14.38;8.13;;;;;;;;;;4997427;28;20030;-76
2023/09/12 01:40:00;;;;;;;12.68;8.25;;;;;;;;;;4997300;28;20037;-76
2023/09/12 01:42:29;;;;;;;15.00;7.85;;;;;;;;;;5005405;28;20101;-77
2023/09/12 01:44:54;;;;;;;;;;;;;;;;;;5003055;28;20041;-76
2023/09/12 01:47:20;;;;;;;14.80;8.37;;;;;;;;;;4997595;28;19918;-76
2023/09/12 01:49:47;;;;;;;14.18;8.25;;;;;;;;;;4995888;28;20161;-76
2023/09/12 01:52:13;;;;;;;19.98;8.40;;;;;;;;;;5000439;28;20030;-76
2023/09/12 01:54:40;;;;;;;15.27;8.38;;;;;;;;;;4996607;28;20022;-76
2023/09/12 01:57:05;;;;;;;12.35;8.07;;;;;;;;;;5000063;28;20137;-76
2023/09/12 01:59:31;;;;;;;12.40;8.05;;;;;;;;;;4998451;28;20053;-76
2023/09/12 02:01:56;;;;;;;15.30;8.60;;;;;;;;;;4996166;28;20112;-76
2023/09/12 02:04:21;;;;;;;12.77;8.20;;;;;;;;;;4996212;28;20037;-76
2023/09/12 02:06:47;;;;;;;13.27;8.00;;;;;;;;;;5001331;28;20358;-76
2023/09/12 02:09:12;;;;;;;15.27;8.37;;;;;;;;;;5003885;28;20045;-76
2023/09/12 02:11:37;;;;;;;23.20;13.97;;;;;;;;;;5002586;28;20037;-76
2023/09/12 02:14:02;;;;;;;25.30;13.90;;;;;;;;;;5007410;28;20275;-77
2023/09/12 02:16:29;;;;;;;18.23;10.67;;;;;;;;;;5000693;28;20282;-77
2023/09/12 02:18:54;;;;;;;14.20;9.35;;;;;;;;;;4998068;28;20304;-77
2023/09/12 02:21:19;;;;;;;15.77;8.48;;;;;;;15.62;nan;100442.72;5000409;28;20471;-77
2023/09/12 02:23:45;;;;;;;13.32;7.25;;;;;;;;;;5000886;28;20049;-77
2023/09/12 02:26:10;;;;;;;15.77;8.17;;;;;;;;;;5000905;28;20026;-77
2023/09/12 02:28:35;;;;;;;21.40;7.77;;;;;;;;;;4999524;28;20264;-76
2023/09/12 02:31:00;;;;;;;14.70;7.77;;;;;;;;;;5004657;28;20056;-77
2023/09/12 02:33:26;;;;;;;14.87;8.10;;;;;;;;;;4998932;28;20318;-77
2023/09/12 02:35:51;;;;;;;13.43;7.75;;;;;;;;;;5007868;28;20311;-77
2023/09/12 02:38:17;;;;;;;14.63;7.80;;;;;;;;;;5000788;28;20061;-77
2023/09/12 02:40:43;;;;;;;12.07;7.55;;;;;;;;;;5000398;28;20145;-76
2023/09/12 02:43:08;;;;;;;13.20;8.27;;;;;;;;;;5002028;28;20120;-77
2023/09/12 02:45:33;;;;;;;12.60;7.60;;;;;;;;;;4997632;28;20275;-77
2023/09/12 02:47:58;;;;;;;11.07;7.57;;;;;;;;;;4998130;28;20117;-77
2023/09/12 02:50:24;;;;;;;12.57;6.87;;;;;;;;;;5002584;28;20283;-77
2023/09/12 02:52:49;;;;;;;11.90;8.20;;;;;;;;;;5000255;28;20283;-77
2023/09/12 02:55:14;;;;;;;12.55;7.85;;;;;;;;;;5002562;28;20280;-76
2023/09/12 02:57:39;;;;;;;15.70;7.63;;;;;;;;;;5000556;28;20128;-76
2023/09/12 03:00:07;;;;;;;19.13;7.53;;;;;;;;;;5000172;28;20279;-76
2023/09/12 03:02:32;;;;;;;13.55;7.13;;;;;;;;;;5002895;28;20290;-77
2023/09/12 03:04:58;;;;;;;13.70;7.97;;;;;;;;;;5001938;28;20499;-76
2023/09/12 03:07:23;;;;;;;10.83;7.40;;;;;;;;;;4998453;28;20280;-76
2023/09/12 03:09:49;;;;;;;14.57;8.10;;;;;;;;;;5000871;28;20030;-77
2023/09/12 03:12:14;;;;;;;17.08;8.43;;;;;;;;;;4996606;28;20100;-76
2023/09/12 03:14:40;;;;;;;15.88;7.85;;;;;;;;;;5000096;28;20046;-76
2023/09/12 03:17:05;;;;;;;11.67;7.63;;;;;;;;;;4999885;28;20361;-77
2023/09/12 03:19:31;;;;;;;15.27;7.40;;;;;;;;;;4997723;28;20052;-76
2023/09/12 03:21:56;;;;;;;14.10;7.50;;;;;;;;;;4999545;28;20054;-77
2023/09/12 03:24:24;;;;;;;14.23;7.67;;;;;;;;;;5001686;28;20030;-76
2023/09/12 03:26:49;;;;;;;13.07;7.38;;;;;;;;;;4998408;28;20279;-76
2023/09/12 03:29:15;;;;;;;14.23;7.43;;;;;;;;;;4999005;28;20403;-76
2023/09/12 03:31:40;;;;;;;22.33;7.53;;;;;;;;;;5033625;28;20338;-77
2023/09/12 03:34:05;;;;;;;12.17;7.50;;;;;;;;;;4999169;28;20034;-76
2023/09/12 03:36:30;;;;;;;12.15;7.18;;;;;;;;;;5000286;28;20326;-76
2023/09/12 03:38:56;;;;;;;13.07;7.60;;;;;;;;;;4998803;28;20022;-71
2023/09/12 03:41:25;;;;;;;12.10;7.70;;;;;;;;;;4999118;28;20685;-72
2023/09/12 03:43:50;;;;;;;13.88;7.70;;;;;;;;;;4996849;28;20272;-74
2023/09/12 03:46:15;;;;;;;15.13;7.82;;;;;;;;;;5002252;28;20049;-74
2023/09/12 03:48:40;;;;;;;17.70;8.10;;;;;;;;;;5006077;28;20049;-74
2023/09/12 03:51:06;;;;;;;13.77;7.70;;;;;;;;;;5000591;28;20475;-75
2023/09/12 03:53:31;;;;;;;18.73;8.20;;;;;;;;;;5001888;28;20088;-74
2023/09/12 03:55:57;;;;;;;17.57;7.90;;;;;;;;;;5000649;28;20530;-73
2023/09/12 03:58:22;;;;;;;17.40;7.90;;;;;;;;;;4995961;28;20077;-74
2023/09/12 04:00:47;;;;;;;16.45;8.25;;;;;;;;;;5001915;28;20053;-74
2023/09/12 04:03:13;;;;;;;18.53;7.53;;;;;;;;;;5002362;28;20515;-75
2023/09/12 04:05:38;;;;;;;18.63;7.83;;;;;;;;;;5000508;28;20026;-76
2023/09/12 04:08:03;;;;;;;15.67;7.83;;;;;;;;;;4999887;28;20293;-77
2023/09/12 04:10:29;;;;;;;15.32;7.85;;;;;;;;;;5001053;28;20334;-76
2023/09/12 04:12:54;;;;;;;17.30;7.90;;;;;;;;;;5000641;28;20515;-76
2023/09/12 04:15:19;;;;;;;16.10;8.68;;;;;;;;;;4998136;28;20366;-75
2023/09/12 04:17:45;;;;;;;17.92;8.20;;;;;;;;;;4999557;28;20030;-76
2023/09/12 04:20:13;;;;;;;13.67;7.97;;;;;;;;;;4996490;28;20109;-75
2023/09/12 04:22:38;;;;;;;20.77;7.72;;;;;;;;;;5002118;28;20292;-75
2023/09/12 04:25:04;;;;;;;13.23;8.20;;;;;;;;;;5003188;28;20045;-76
2023/09/12 04:27:29;;;;;;;18.40;8.48;;;;;;;;;;5000316;28;20498;-75
2023/09/12 04:29:54;;;;;;;17.20;8.73;;;;;;;;;;5000104;28;20090;-74
2023/09/12 04:32:23;;;;;;;19.77;7.97;;;;;;;;;;4995569;28;20315;-75
2023/09/12 04:34:48;;;;;;;18.85;8.25;;;;;;;;;;5000081;28;20124;-75
2023/09/12 04:37:13;;;;;;;24.58;8.70;;;;;;;;;;4999215;28;20132;-75
2023/09/12 04:39:39;;;;;;;26.87;9.23;;;;;;;;;;4998976;28;20045;-75
2023/09/12 04:42:04;;;;;;;19.67;8.37;;;;;;;;;;4998350;28;20034;-75
2023/09/12 04:44:34;;;;;;;24.08;8.35;;;;;;;;;;5000265;28;20306;-75
2023/09/12 04:46:59;;;;;;;26.10;8.68;;;;;;;;;;4998350;28;20141;-74
2023/09/12 04:49:24;;;;;;;21.93;8.20;;;;;;;;;;4998552;28;20567;-75
2023/09/12 04:51:50;;;;;;;16.20;8.17;;;;;;;;;;4996587;28;20592;-74
2023/09/12 04:54:15;;;;;;;20.87;9.30;;;;;;;;;;4999011;28;20033;-74
2023/09/12 04:56:40;;;;;;;21.77;8.63;;;;;;;;;;5004453;28;20302;-75
2023/09/12 04:59:06;;;;;;;16.83;8.40;;;;;;;;;;4998807;28;20290;-74
2023/09/12 05:01:32;;;;;;;18.77;8.43;;;;;;;;;;5005269;28;20112;-74
2023/09/12 05:03:57;;;;;;;17.05;8.52;;;;;;;;;;4997374;28;20045;-74
2023/09/12 05:06:22;;;;;;;18.83;8.00;;;;;;;;;;4997803;28;20030;-76
2023/09/12 05:08:47;;;;;;;14.33;8.57;;;;;;;;;;5000081;28;20029;-75
2023/09/12 05:11:13;;;;;;;19.53;8.23;;;;;;;;;;4999548;28;20353;-76
2023/09/12 05:13:38;;;;;;;15.07;8.37;;;;;;;;;;4998074;28;20728;-75
2023/09/12 05:16:03;;;;;;;16.70;8.37;;;;;;;;;;4997991;28;20280;-75
2023/09/12 05:18:30;;;;;;;19.83;8.20;;;;;;;;;;4997233;28;20121;-73
2023/09/12 05:20:55;;;;;;;17.92;8.85;;;;;;;;;;5004336;28;20133;-76
2023/09/12 05:23:21;;;;;;;33.38;8.85;;;;;;;;;;5000231;28;20057;-76
2023/09/12 05:25:46;;;;;;;26.73;8.67;;;;;;;;;;4996261;28;20510;-78
2023/09/12 05:28:15;;;;;;;17.57;9.23;;;;;;;;;;5000715;28;20329;-77
2023/09/12 05:30:40;;;;;;;;;;;;;;;;;;4999246;28;20342;-77
2023/09/12 05:33:06;;;;;;;;;;;;;;;;;;5002306;28;19913;-78
2023/09/12 05:35:31;;;;;;;;;;;;;;;;;;5001198;28;19917;-77
2023/09/12 05:37:56;;;;;;;;;;;;;;;;;;4999529;28;19924;-76
2023/09/12 05:40:22;;;;;;;;;;;;;;;;;;5031509;28;19909;-76
2023/09/12 05:42:47;;;;;;;;;;;;;;;;;;5003985;28;19956;-76
2023/09/12 05:45:12;;;;;;;;;;;;;;;;;;5001274;28;19918;-76
2023/09/12 05:47:37;;;;;;;;;;;;;;;;;;5005373;28;19909;-75
2023/09/12 05:50:06;;;;;;;;;;;;;;;;;;5037012;28;20563;-76
2023/09/12 05:52:34;;;;;;;;;;;;;;;;;;5035546;28;19955;-78
2023/09/12 05:54:59;;;;;;;;;;;;;;;;;;5032200;28;19924;-78
2023/09/12 05:57:24;;;;;;;;;;;;;;;;;;5036039;28;19925;-78
2023/09/12 05:59:50;;;;;;;;;;;;;;;;;;5032951;28;19922;-79
2023/09/12 06:02:15;;;;;;;;;;;;;;;;;;5037350;28;19910;-78
2023/09/12 06:04:40;;;;;;;;;;;;;;;;;;5036221;28;20294;-77
2023/09/12 06:07:05;;;;;;;;;;;;;;;;;;5006011;28;19952;-76
2023/09/12 06:09:30;;;;;;;;;;;;;;;;;;5003366;28;19914;-76
2023/09/12 06:11:55;;;;;;;;;;;;;;;;;;5034300;28;19928;-79
2023/09/12 06:14:21;;;;;;;;;;;;;;;;;;5033622;28;19918;-79
2023/09/12 06:16:46;;;;;;;;;;;;;;;;;;5001726;28;20004;-78
2023/09/12 06:19:11;;;;;;;;;;;;;;;;;;5002418;28;19913;-78
2023/09/12 06:21:36;;;;;;;;;;;;;;;;;;5032664;28;19917;-79
2023/09/12 06:24:02;;;;;;;;;;;;;;;;;;5002870;28;19921;-77
2023/09/12 06:26:27;;;;;;;;;;;;;;;;;;5035447;28;19959;-79
2023/09/12 06:28:52;;;;;;;;;;;;;;;;;;5034392;28;19925;-79
2023/09/12 06:31:17;;;;;;;;;;;;;;;;;;5033032;28;19995;-79
2023/09/12 06:33:42;;;;;;;;;;;;;;;;;;4999363;28;19913;-77
2023/09/12 06:36:07;;;;;;;;;;;;;;;;;;5033404;28;20364;-78
2023/09/12 06:38:33;;;;;;;;;;;;;;;18.37;nan;100523.03;5033078;28;19964;-79
2023/09/12 06:40:58;;;;;;;;;;;;;;;18.52;nan;100527.50;5006826;28;19913;-77
2023/09/12 06:43:23;;;;;;;;;;;;;;;18.63;nan;100529.81;5001280;28;19925;-76
2023/09/12 06:45:50;;;;;;;;;;;;;;;18.75;nan;100526.81;5001983;28;19940;-78
2023/09/12 06:48:16;;;;;;;;;;;;;;;18.85;nan;100536.66;5001825;28;20007;-78
2023/09/12 06:50:41;;;;;;;;;;;;;;;18.95;nan;100535.81;5007043;28;19980;-77
2023/09/12 06:53:07;;;;;;;;;;;;;;;19.04;nan;100534.16;5001869;28;20396;-78
2023/09/12 06:55:32;;;;;;;;;;;;;;;19.19;nan;100530.56;5002262;28;19926;-77
2023/09/12 06:57:57;;;;;;;;;;;;;;;19.27;nan;100532.63;5001408;28;19920;-77
2023/09/12 07:00:24;;;;;;;;;;;;;;;19.34;nan;100527.75;5001742;28;19913;-77
2023/09/12 07:02:49;;;;;;;;;;;;;;;19.60;nan;100535.53;5002065;28;19968;-78
2023/09/12 07:05:15;;;;;;;;;;;;;;;19.69;nan;100537.34;5001276;28;19953;-76
2023/09/12 07:07:40;;;;;;;;;;;;;;;19.79;nan;100533.78;5005084;28;20002;-76
2023/09/12 07:10:06;;;;;;;;;;;;;;;19.90;nan;100540.63;5001300;28;19929;-77
2023/09/12 07:12:32;;;;;;;;;;;;;;;20.01;nan;100538.63;5003525;28;19914;-76
2023/09/12 07:14:58;;;;;;;;;;;;;;;20.10;nan;100546.81;5001932;28;20393;-76
2023/09/12 07:17:23;;;;;;;;;;;;;;;20.21;nan;100542.13;4999087;28;19909;-77
2023/09/12 07:19:48;;;;;;;;;;;;;;;20.27;nan;100541.78;5001425;28;20032;-77
2023/09/12 07:22:13;;;;;;;;;;;;;;;20.42;nan;100546.16;5000934;28;19913;-77
2023/09/12 07:24:39;;;;;;;;;;;;;;;20.55;nan;100540.13;5004724;28;19921;-77
2023/09/12 07:27:04;;;;;;;;;;;;;;;20.85;nan;100550.69;5001377;28;20442;-75
2023/09/12 07:29:29;;;;;;;;;;;;;;;21.00;nan;100551.28;5006177;28;19920;-75
2023/09/12 07:31:55;;;;;;;;;;;;;;;21.11;nan;100543.88;5001081;28;20032;-74
2023/09/12 07:34:20;;;;;;;;;;;;;;;21.18;nan;100540.84;5003077;28;20263;-74
2023/09/12 07:36:46;;;;;;;;;;;;;;;21.37;nan;100538.91;5001857;28;19917;-75
2023/09/12 07:39:11;;;;;;;;;;;;;;;21.50;nan;100542.75;5002168;28;19957;-73
2023/09/12 07:41:36;;;;;;;;;;;;;;;21.54;nan;100542.94;5001742;28;20387;-76
2023/09/12 07:44:04;;;;;;;;;;;;;;;21.70;nan;100540.81;5000500;28;19951;-75
2023/09/12 07:46:29;;;;;;;;;;;;;;;21.78;nan;100538.22;5000096;28;19913;-76
2023/09/12 07:48:55;;;;;;;;;;;;;;;22.02;nan;100542.59;5002826;28;20283;-76
2023/09/12 07:51:22;;;;;;;;;;;;;;;22.20;nan;100536.38;5005358;28;19925;-76
2023/09/12 07:53:47;;;;;;;;;;;;;;;22.32;nan;100537.75;5000000;28;20544;-77
2023/09/12 07:56:13;;;;;;;;;;;;;;;22.41;nan;100542.13;5003159;28;20055;-76
2023/09/12 07:58:38;;;;;;;;;;;;;;;22.50;nan;100536.81;5002632;28;19964;-76
2023/09/12 08:01:07;;;;;;;;;;;;;;;22.32;nan;100500.19;5003521;28;19913;-76
2023/09/12 08:03:33;;;;;;;;;;;;;;;22.66;nan;100545.34;5004185;28;19936;-76
2023/09/12 08:05:58;;;;;;;;;;;;;;;22.85;nan;100535.22;5001188;28;19944;-76
2023/09/12 08:08:24;;;;;;;;;;;;;;;22.90;nan;100537.00;5004723;28;20621;-76
2023/09/12 08:10:49;;;;;;;;;;;;;;;23.04;nan;100539.69;5002555;28;19968;-77
2023/09/12 08:13:14;;;;;;;;;;;;;;;23.14;nan;100545.59;5003261;28;19917;-77
2023/09/12 08:15:40;;;;;;;;;;;;;;;23.23;nan;100539.50;5003803;28;20676;-77
2023/09/12 08:18:05;;;;;;;;;;;;;;;23.32;nan;100543.00;5001557;28;20426;-76
2023/09/12 08:20:30;;;;;;;;;;;;;;;23.40;nan;100542.28;5002338;28;20011;-77
2023/09/12 08:22:55;;;;;;;;;;;;;;;23.42;nan;100518.59;5001565;28;19922;-76
2023/09/12 08:25:21;;;;;;;;;;;;;;;23.62;nan;100541.44;5002899;28;19927;-77
2023/09/12 08:27:46;;;;;;;;;;;;;;;23.68;nan;100539.41;5002874;28;19922;-77
2023/09/12 08:30:12;;;;;;;;;;;;;;;23.86;nan;100543.78;5001306;28;20008;-77
2023/09/12 08:32:39;;;;;;;;;;;;;;;23.97;nan;100538.94;5001908;28;19925;-75
2023/09/12 08:35:05;;;;;;;;;;;;;;;24.06;nan;100537.03;5001414;28;19917;-75
2023/09/12 08:37:30;;;;;;;;;;;;;;;24.16;nan;100536.00;5003363;28;19927;-75
2023/09/12 08:39:58;;;;;;;;;;;;;;;24.26;nan;100538.38;5003568;28;19921;-74
2023/09/12 08:42:26;;;;;;;;;;;;;;;24.37;nan;100541.56;5001573;28;20477;-75
2023/09/12 08:44:52;;;;;;;;;;;;;;;24.46;nan;100533.50;5031734;28;19919;-75
2023/09/12 08:47:19;;;;;;;;;;;;;;;24.58;nan;100531.00;4999367;28;19917;-75
2023/09/12 08:49:44;;;;;;;;;;;;;;;24.68;nan;100530.69;5032172;28;20360;-74
2023/09/12 08:52:09;;;;;;;;;;;;;;;24.78;nan;100538.47;4999151;28;19928;-72
2023/09/12 08:54:35;;;;;;;;;;;;;;;24.90;nan;100529.75;5001948;28;19953;-71
2023/09/12 08:57:04;;;;;;;;;;;;;;;25.03;nan;100530.69;5000860;28;19926;-73
2023/09/12 08:59:33;;;;;;;;;;;;;;;25.10;nan;100530.19;5001976;28;20004;-74
2023/09/12 09:01:59;;;;;;;;;;;;;;;25.25;nan;100522.41;4999948;28;19909;-74
2023/09/12 09:04:26;;;;;;;;;;;;;;;25.34;nan;100530.50;5000423;28;19917;-73
2023/09/12 09:06:52;;;;;;;;;;;;;;;25.44;nan;100534.75;5000166;28;20306;-75
2023/09/12 09:09:18;;;;;;;;;;;;;;;25.53;nan;100532.03;5002990;28;19918;-73
2023/09/12 09:11:43;;;;;;;;;;;;;;;25.60;nan;100526.94;5002125;28;19921;-73
2023/09/12 09:14:08;;;;;;;;;;;;;;;25.71;nan;100522.75;4997863;28;19916;-73
2023/09/12 09:16:35;;;;;;;;;;;;;;;25.84;nan;100515.56;5001994;28;19913;-71
2023/09/12 09:19:09;;;;;;;;;;;;;;;25.95;nan;100526.81;5009976;28;20465;-72
2023/09/12 09:21:34;;;;;;;;;;;;;;;26.03;nan;100510.56;5001760;28;19909;-73
2023/09/12 09:24:09;;;;;;;;;;;;;;;26.10;nan;100518.16;5002846;28;20015;-72
2023/09/12 09:27:01;;;;;;;;;;;;;;;26.21;nan;100513.94;5007739;28;19920;-74
2023/09/12 09:29:31;;;;;;;;;;;;;;;26.30;nan;100514.69;4999470;28;20423;-74
2023/09/12 09:31:56;;;;;;;;;;;;;;;26.37;nan;100521.47;5004011;28;20303;-74
2023/09/12 09:34:23;;;;;;;;;;;;;;;26.44;nan;100513.66;5005248;28;19910;-74
2023/09/12 09:36:50;;;;;;;;;;;;;;;26.55;nan;100516.75;5006313;28;19917;-74
2023/09/12 09:39:19;;;;;;;;;;;;;;;26.60;nan;100516.56;5002728;28;19932;-74
2023/09/12 09:41:47;;;;;;;;;;;;;;;26.66;nan;100512.53;5000040;28;20008;-76
2023/09/12 09:44:13;;;;;;;;;;;;;;;26.74;nan;100506.28;5001376;28;19920;-74
2023/09/12 09:46:38;;;;;;;;;;;;;;;26.80;nan;100501.47;5002870;28;20300;-74
2023/09/12 09:49:03;;;;;;;;;;;;;;;26.90;nan;100503.75;5004455;28;20275;-73
2023/09/12 09:51:32;;;;;;;;;;;;;;;26.98;nan;100502.88;5003236;28;20371;-74
2023/09/12 09:53:58;;;;;;;;;;;;;;;27.07;nan;100498.16;5003579;28;20256;-74
2023/09/12 09:56:24;;;;;;;;;;;;;;;27.15;nan;100496.50;5003854;28;19921;-73
2023/09/12 09:58:56;;;;;;;;;;;;;;;27.18;nan;100495.84;4998634;28;19913;-73
2023/09/12 10:01:22;;;;;;;;;;;;;;;27.26;nan;100488.78;5009563;28;19920;-73
2023/09/12 10:03:48;;;;;;;;;;;;;;;27.31;nan;100494.75;5033468;28;19921;-74
2023/09/12 10:06:14;;;;;;;;;;;;;;;27.37;nan;100487.22;5036021;28;19977;-75
2023/09/12 10:08:40;;;;;;;;;;;;;;;27.44;nan;100489.34;4999861;28;19997;-74
2023/09/12 10:11:06;;;;;;;;;;;;;;;27.40;nan;100483.06;5003440;28;19976;-74
2023/09/12 10:13:33;;;;;;;;;;;;;;;27.42;nan;100486.22;5004445;28;19949;-74
2023/09/12 10:16:00;;;;;;;;;;;;;;;27.46;nan;100484.41;5000600;28;20429;-74
2023/09/12 10:18:28;;;;;;;;;;;;;;;27.54;nan;100478.13;5009904;28;19924;-75
2023/09/12 10:21:20;;;;;;;;;;;;;;;27.64;nan;100482.28;5034280;28;19914;-74
2023/09/12 10:23:47;;;;;;;;;;;;;;;27.77;nan;100479.25;5000353;28;19910;-74
2023/09/12 10:26:13;;;;;;;;;;;;;;;27.81;nan;100473.16;5004730;28;19909;-71
2023/09/12 10:28:42;;;;;;;;;;;;;;;27.88;nan;100478.81;5008374;28;19948;-72
2023/09/12 10:31:08;;;;;;;;;;;;;;;27.89;nan;100478.44;5033718;28;19913;-72
2023/09/12 10:33:34;;;;;;;;;;;;;;;27.93;nan;100467.75;5002118;28;19913;-75
2023/09/12 10:36:03;;;;;;;;;;;;;;;27.95;nan;100465.50;5002011;28;19967;-75
2023/09/12 10:38:29;;;;;;;;;;;;;;;28.03;nan;100469.19;5002992;28;19917;-72
2023/09/12 10:40:55;;;;;;;;;;;;;;;28.14;nan;100465.69;5000675;28;20005;-71
2023/09/12 10:43:22;;;;;;;;;;;;;;;28.19;nan;100462.72;5003830;28;19925;-72
2023/09/12 10:45:48;;;;;;;;;;;;;;;28.27;nan;100469.13;5000801;28;19909;-73
2023/09/12 10:48:13;;;;;;;;;;;;;;;28.34;nan;100465.84;5001037;28;19953;-73
2023/09/12 10:50:39;;;;;;;;;;;;;;;28.29;nan;100460.69;5031563;28;19960;-74
2023/09/12 10:53:14;;;;;;;;;;;;;;;28.33;nan;100462.38;5002260;28;19913;-74
2023/09/12 10:55:39;;;;;;;;;;;;;;;28.43;nan;100461.09;4999892;28;19917;-72
2023/09/12 10:58:08;;;;;;;;;;;;;;;28.52;nan;100458.28;5031077;28;19910;-71
2023/09/12 11:00:34;;;;;;;;;;;;;;;28.58;nan;100449.53;5002763;28;19915;-71
2023/09/12 11:03:10;;;;;;;;;;;;;;;28.63;nan;100449.28;5003902;28;19909;-72
2023/09/12 11:05:36;;;;;;;;;;;;;;;28.78;nan;100444.22;5003250;28;19917;-73
2023/09/12 11:08:04;;;;;;;;;;;;;;;28.81;nan;100447.06;4999331;28;19920;-70
2023/09/12 11:10:31;;;;;;;;;;;;;;;28.76;nan;100446.53;5001520;28;20401;-73
2023/09/12 11:12:56;;;;;;;;;;;;;;;28.84;nan;100440.16;5016469;28;19917;-72
2023/09/12 11:15:26;;;;;;;;;;;;;;;28.89;nan;100437.19;5001019;28;20016;-73
2023/09/12 11:18:02;;;;;;;;;;;;;;;28.96;nan;100440.06;4999050;28;19962;-74
2023/09/12 11:20:47;;;;;;;;;;;;;;;29.08;nan;100436.53;5007964;28;19983;-72
2023/09/12 11:23:13;;;;;;;;;;;;;;;29.17;nan;100444.50;5002043;28;19914;-74
2023/09/12 11:25:38;;;;;;;;;;;;;;;29.14;nan;100440.56;5001648;28;19921;-74
2023/09/12 11:28:04;;;;;;;;;;;;;;;29.22;nan;100441.53;4999971;28;20375;-74
2023/09/12 11:30:33;;;;;;;;;;;;;;;29.31;nan;100431.28;5001000;28;19960;-74
2023/09/12 11:33:02;;;;;;;;;;;;;;;29.32;nan;100429.34;5030328;28;19955;-74
2023/09/12 11:35:28;;;;;;;;;;;;;;;29.24;nan;100425.69;4997441;28;19944;-75
2023/09/12 11:37:56;;;;;;;;;;;;;;;29.27;nan;100427.69;5003624;28;19913;-75
2023/09/12 11:40:33;;;;;;;;;;;;;;;29.36;nan;100420.16;5006366;28;19910;-76
2023/09/12 11:42:59;;;;;;;;;;;;;;;29.35;nan;100424.00;4998365;28;20265;-75
2023/09/12 11:45:25;;;;;;;;;;;;;;;29.42;nan;100416.03;5003066;28;19913;-75
2023/09/12 11:47:50;;;;;;;;;;;;;;;29.52;nan;100413.91;5000052;28;19918;-74
2023/09/12 11:50:27;;;;;;;;;;;;;;;29.60;nan;100412.97;5001704;28;19986;-75
2023/09/12 11:52:59;;;;;;;;;;;;;;;29.66;nan;100406.91;5033354;28;19918;-74
2023/09/12 11:55:24;;;;;;;;;;;;;;;29.73;nan;100406.28;5005374;28;19964;-73
2023/09/12 11:57:49;;;;;;;;;;;;;;;29.72;nan;100407.44;5000208;28;20554;-73
2023/09/12 12:00:19;;;;;;;;;;;;;;;29.76;nan;100402.84;5000943;28;19940;-73
2023/09/12 12:02:44;;;;;;;;;;;;;;;29.80;nan;100397.53;4999875;28;19910;-73
2023/09/12 12:05:10;;;;;;;;;;;;;;;29.87;nan;100408.53;5006743;28;19919;-73
2023/09/12 12:07:35;;;;;;;;;;;;;;;29.86;nan;100402.31;5000751;28;19963;-71
2023/09/12 12:10:00;;;;;;;;;;;;;;;29.93;nan;100392.75;5001948;28;20248;-72
2023/09/12 12:12:25;;;;;;;;;;;;;;;30.01;nan;100397.97;5001832;28;20003;-72
2023/09/12 12:14:51;;;;;;;;;;;;;;;30.06;nan;100394.19;5006781;28;19960;-71
2023/09/12 12:17:16;;;;;;;;;;;;;;;30.09;nan;100399.69;4997838;28;20296;-74
2023/09/12 12:19:45;;;;;;;;;;;;;;;30.10;nan;100395.06;5002264;28;19932;-72
2023/09/12 12:22:10;;;;;;;;;;;;;;;30.03;nan;100395.69;5001464;28;20375;-73
2023/09/12 12:24:36;;;;;;;;;;;;;;;29.99;nan;100394.03;5005235;28;19959;-73
2023/09/12 12:27:03;;;;;;;;;;;;;;;30.04;nan;100383.66;5000633;28;20291;-73
2023/09/12 12:29:28;;;;;;;;;;;;;;;30.10;nan;100381.47;5001653;28;19975;-72
2023/09/12 12:31:53;;;;;;;;;;;;;;;30.17;nan;100378.09;4999655;28;19914;-72
2023/09/12 12:34:21;;;;;;;;;;;;;;;30.09;nan;100382.59;5001244;28;20342;-70
2023/09/12 12:36:46;;;;;;;;;;;;;;;30.16;nan;100376.53;4999577;28;20007;-71
2023/09/12 12:39:12;;;;;;;;;;;;;;;30.18;nan;100374.25;4998151;28;20003;-72
2023/09/12 12:41:38;;;;;;;;;;;;;;;30.28;nan;100376.41;5028542;28;20001;-75
2023/09/12 12:44:04;;;;;;;;;;;;;;;30.40;nan;100375.47;4999619;28;19922;-73
2023/09/12 12:46:30;;;;;;;;;;;;;;;30.48;nan;100369.00;4997902;28;20360;-68
2023/09/12 12:48:55;;;;;;;;;;;;;;;30.56;nan;100361.78;5002997;28;19929;-72
2023/09/12 12:51:22;;;;;;;;;;;;;;;30.58;nan;100368.44;5000380;28;19925;-73
2023/09/12 12:53:52;;;;;;;;;;;;;;;30.60;nan;100368.03;5033282;28;20338;-72
2023/09/12 12:56:18;;;;;;;;;;;;;;;30.63;nan;100368.13;5000155;28;19922;-72
2023/09/12 12:58:57;;;;;;;;;;;;;;;30.68;nan;100370.53;5031902;28;20000;-68
2023/09/12 13:01:23;;;;;;;;;;;;;;;30.73;nan;100366.72;4998244;28;19960;-67
2023/09/12 13:03:52;;;;;;;;;;;;;;;30.79;nan;100361.78;5032208;28;19945;-67
2023/09/12 13:06:18;;;;;;;;;;;;;;;30.83;nan;100370.78;5000563;28;19913;-68
2023/09/12 13:08:44;;;;;;;;;;;;;;;30.86;nan;100359.97;5002922;28;19964;-68
2023/09/12 13:11:10;;;;;;;;;;;;;;;30.90;nan;100354.59;4995601;28;20307;-67
2023/09/12 13:13:36;;;;;;;;;;;;;;;30.96;nan;100358.59;5029368;28;20000;-67
2023/09/12 13:16:04;;;;;;;;;;;;;;;31.01;nan;100355.56;5030118;28;20004;-68
2023/09/12 13:18:30;;;;;;;;;;;;;;;31.06;nan;100349.81;4998835;28;19960;-72
2023/09/12 13:20:55;;;;;;;;;;;;;;;31.08;nan;100350.25;5031336;28;20446;-72
2023/09/12 13:23:21;;;;;;;;;;;;;;;31.11;nan;100357.66;5000473;28;19917;-72
2023/09/12 13:25:46;;;;;;;;;;;;;;;31.15;nan;100349.53;4997938;28;19935;-72
2023/09/12 13:28:11;;;;;;;;;;;;;;;31.20;nan;100353.88;5000904;28;19963;-71
2023/09/12 13:30:36;;;;;;;;;;;;;;;31.24;nan;100343.84;4997258;28;19921;-72
2023/09/12 13:33:02;;;;;;;;;;;;;;;31.27;nan;100345.84;4997669;28;19914;-72
2023/09/12 13:35:27;;;;;;;;;;;;;;;31.30;nan;100351.34;5000837;28;19913;-72
2023/09/12 13:37:52;;;;;;;;;;;;;;;31.30;nan;100348.63;4999300;28;19924;-72